Latest Coastal Weather Observations for Cape Nelson

IDV60701

Issued at 5:32 am EDT Sunday 11 December 2016 (issued every 10 minutes, with the page automatically refreshed every 10 minutes)

About coastal observations | Map of coastal stations | Coastal observations for VIC | Marine services | Other Formats
Station Details ID: 090184 Name: CAPE NELSON LIGHTHOUSE Lat: -38.43 Lon: 141.54 Height: 45.4 m
Data from the previous 72 hours. | See also: Recent months at Cape Nelson
Date/Time
EDT
Temp
°C
Wind Pressure Rain since
9am
mm
Weather Cloud Vis
km
Sea
Height
m
Swell
Dir  Spd
kts
Gust
kts
hPa Trend Height
m
Period
s
Dir
11/05:30am 13.0 SSE 11 13 1023.1 - 0.0 - - - - - - -
11/05:00am 13.1 S 11 14 1022.8 - 0.0 - - - - - - -
11/04:30am 13.4 SSE 11 15 1022.7 - 0.0 - - - - - - -
11/04:00am 13.3 SSE 8 11 1022.9 - 0.0 - - - - - - -
11/03:30am 13.3 S 8 10 1023.0 - 0.0 - - - - - - -
11/03:00am 13.3 S 8 10 1023.2 - 0.0 - - - - - - -
11/02:30am 13.1 S 7 11 1023.4 - 0.0 - - - - - - -
11/02:00am 13.2 S 6 9 1023.7 - 0.0 - - - - - - -
11/01:30am 13.1 S 5 7 1024.0 - 0.0 - - - - - - -
11/01:00am 13.0 SSE 6 10 1024.1 - 0.0 - - - - - - -
11/12:30am 12.7 W 2 4 1024.3 - 0.0 - - - - - - -
11/12:00am 12.7 S 5 7 1024.5 - 0.0 - - - - - - -
 
Date/Time
EDT
Temp
°C
Wind Pressure Rain since
9am
mm
Weather Cloud Vis
km
Sea
Height
m
Swell
Dir  Spd
kts
Gust
kts
hPa Trend Height
m
Period
s
Dir
10/11:30pm 12.7 S 6 9 1024.5 - 0.0 - - - - - - -
10/11:00pm 12.9 E 4 7 1024.5 - 0.0 - - - - - - -
10/10:30pm 13.1 SE 5 10 1024.6 - 0.0 - - - - - - -
10/10:00pm 13.1 ENE 5 8 1024.4 - 0.0 - - - - - - -
10/09:30pm 13.2 ESE 5 8 1024.2 - 0.0 - - - - - - -
10/09:00pm 13.3 NE 5 9 1024.1 - 0.0 - - - - - - -
10/08:30pm 13.4 WNW 7 12 1024.0 - 0.0 - - - - - - -
10/08:00pm 13.5 NNW 6 9 1023.8 - 0.0 - - - - - - -
10/07:30pm 13.6 WNW 6 11 1023.8 - 0.0 - - - - - - -
10/07:00pm 13.3 W 10 14 1023.6 - 0.0 - - - - - - -
10/06:30pm 13.6 W 11 14 1023.5 - 0.0 - - - - - - -
10/06:00pm 13.7 W 9 13 1023.6 - 0.0 - - - - - - -
10/05:30pm 12.7 W 10 15 1023.7 - 0.0 - - - - - - -
10/05:00pm 12.9 NW 9 15 1023.8 - 0.0 - - - - - - -
10/04:30pm 14.1 W 11 16 1023.8 - 0.0 - - - - - - -
10/04:00pm 14.3 W 11 15 1023.9 - 0.0 - - - - - - -
10/03:30pm 14.0 W 10 15 1024.2 - 0.0 - - - - - - -
10/03:00pm 14.6 W 11 15 1024.3 - 0.0 - - - - - - -
10/02:30pm 14.6 W 11 16 1024.4 - 0.0 - - - - - - -
10/02:00pm 15.5 WNW 11 15 1024.7 - 0.0 - - - - - - -
10/01:30pm 14.5 W 13 18 1024.8 - 0.0 - - - - - - -
10/01:00pm 13.7 W 13 17 1024.7 - 0.0 - - - - - - -
10/12:30pm 14.0 WNW 8 14 1024.6 - 0.0 - - - - - - -
10/12:00pm 15.0 W 7 10 1024.7 - 0.0 - - - - - - -
10/11:30am 13.5 W 7 12 1024.8 - 0.0 - - - - - - -
10/11:00am 15.1 NNW 8 13 1024.9 - 0.0 - - - - - - -
10/10:30am 13.9 W 7 11 1024.9 - 0.0 - - - - - - -
10/10:00am 12.7 W 11 15 1025.0 - 0.0 - - - - - - -
10/09:30am 13.7 W 8 13 1024.6 - 0.0 - - - - - - -
10/09:00am 12.8 W 8 12 1024.5 - 0.0 - - - - - - -
10/08:30am 13.2 NNW 6 10 1024.2 - 0.0 - - - - - - -
10/08:00am 11.9 N 6 9 1023.9 - 0.0 - - - - - - -
10/07:30am 12.2 W 6 11 1023.6 - 0.0 - - - - - - -
10/07:00am 11.4 NNW 3 5 1023.2 - 0.0 - - - - - - -
10/06:30am 10.9 WNW 5 7 1022.9 - 0.0 - - - - - - -
10/06:00am 10.0 NNW 4 6 1022.6 - 0.0 - - - - - - -
10/05:30am 11.0 NW 4 6 1022.5 - 0.0 - - - - - - -
10/05:00am 11.6 W 8 12 1022.5 - 0.0 - - - - - - -
10/04:30am 11.8 W 9 13 1022.2 - 0.0 - - - - - - -
10/04:00am 11.7 W 5 9 1022.2 - 0.0 - - - - - - -
10/03:30am 11.7 WSW 5 8 1022.3 - 0.0 - - - - - - -
10/03:00am 11.6 WNW 4 7 1022.5 - 0.0 - - - - - - -
10/02:30am 11.6 S 5 9 1022.7 - 0.0 - - - - - - -
10/02:00am 11.6 W 7 11 1022.8 - 0.0 - - - - - - -
10/01:30am 11.3 W 3 5 1023.0 - 0.0 - - - - - - -
10/01:00am 11.6 SSE 5 9 1023.3 - 0.0 - - - - - - -
10/12:30am 11.6 N 7 11 1023.2 - 0.0 - - - - - - -
10/12:00am 12.1 E 6 12 1023.2 - 0.0 - - - - - - -
 
Date/Time
EDT
Temp
°C
Wind Pressure Rain since
9am
mm
Weather Cloud Vis
km
Sea
Height
m
Swell
Dir  Spd
kts
Gust
kts
hPa Trend Height
m
Period
s
Dir
09/11:30pm 11.9 S 10 15 1023.4 - 0.0 - - - - - - -
09/11:00pm 12.2 SE 9 16 1023.5 - 0.0 - - - - - - -
09/10:30pm 12.1 NE 5 8 1023.4 - 0.0 - - - - - - -
09/10:00pm 12.3 SE 5 9 1023.3 - 0.0 - - - - - - -
09/09:30pm 12.2 ESE 6 11 1023.1 - 0.0 - - - - - - -
09/09:00pm 12.1 NE 4 7 1023.1 - 0.0 - - - - - - -
09/08:30pm 12.4 SSE 6 11 1022.9 - 0.0 - - - - - - -
09/08:00pm 12.9 NE 6 11 1022.8 - 0.0 - - - - - - -
09/07:30pm 12.8 WNW 5 7 1022.6 - 0.0 - - - - - - -
09/07:00pm 12.5 W 6 9 1022.2 - 0.0 - - - - - - -
09/06:30pm 12.7 NNW 9 15 1021.8 - 0.0 - - - - - - -
09/06:00pm 13.4 SE 7 14 1021.7 - 0.0 - - - - - - -
09/05:30pm 14.0 NE 8 11 1021.7 - 0.0 - - - - - - -
09/05:00pm 13.9 SSE 9 17 1021.7 - 0.0 - - - - - - -
09/04:30pm 14.1 SE 8 14 1021.5 - 0.0 - - - - - - -
09/04:00pm 14.3 SSE 8 13 1021.5 - 0.0 - - - - - - -
09/03:30pm 13.9 SSE 9 17 1021.6 - 0.0 - - - - - - -
09/03:00pm 12.5 S 16 21 1021.7 - 0.0 - - - - - - -
09/02:30pm 12.8 SE 10 19 1021.4 - 0.0 - - - - - - -
09/02:00pm 13.2 N 8 14 1021.4 - 0.0 - - - - - - -
09/01:30pm 15.8 NW 7 11 1021.2 - 0.0 - - - - - - -
09/01:00pm 13.9 E 10 19 1020.7 - 0.0 - - - - - - -
09/12:30pm 14.7 SSE 9 16 1020.6 - 0.0 - - - - - - -
09/12:00pm 13.2 S 11 19 1020.5 - 0.0 - - - - - - -
09/11:30am 12.5 S 15 25 1020.4 - 0.0 - - - - - - -
09/11:29am 12.4 S 15 25 1020.3 - 0.0 - - - - - - -
09/11:28am 12.5 S 15 24 1020.3 - 0.0 - - - - - - -
09/11:00am 13.8 SSE 9 15 1020.0 - 0.0 - - - - - - -
09/10:34am 13.3 S 15 25 1019.7 - 0.0 - - - - - - -
09/10:30am 13.1 S 15 23 1019.8 - 0.0 - - - - - - -
09/10:00am 13.2 ESE 10 19 1019.3 - 0.0 - - - - - - -
09/09:30am 12.6 SSE 11 22 1019.0 - 0.0 - - - - - - -
09/09:00am 12.7 SSE 12 22 1018.3 - 2.0 - - - - - - -
09/08:30am 12.2 S 13 21 1017.8 - 2.0 - - - - - - -
09/08:00am 11.8 S 23 31 1017.4 - 2.0 - - - - - - -
09/07:30am 12.6 S 16 28 1016.4 - 2.0 - - - - - - -
09/07:07am 12.3 S 19 29 1016.2 - 2.0 - - - - - - -
09/07:00am 12.0 S 21 28 1016.1 - 2.0 - - - - - - -
09/06:45am 12.1 S 18 28 1015.9 - 2.0 - - - - - - -
09/06:30am 11.8 S 21 30 1015.9 - 2.0 - - - - - - -
09/06:04am 12.0 S 15 25 1015.1 - 2.0 - - - - - - -
09/06:00am 11.7 S 14 23 1015.0 - 2.0 - - - - - - -
09/05:30am 11.9 S 17 28 1014.6 - 2.0 - - - - - - -
09/05:00am 11.9 S 17 27 1014.2 - 2.0 - - - - - - -
09/04:58am 11.8 S 15 27 1014.3 - 2.0 - - - - - - -
09/04:30am 11.5 S 14 25 1013.6 - 2.0 - - - - - - -
09/04:11am 11.3 S 16 28 1013.0 - 2.0 - - - - - - -
09/04:01am 11.6 S 25 35 1013.2 - 2.0 - - - - - - -
09/04:00am 11.4 S 26 35 1013.3 - 2.0 - - - - - - -
09/03:49am 10.9 SSE 15 30 1013.2 - 2.0 - - - - - - -
09/03:30am 11.2 ENE 13 24 1012.8 - 1.4 - - - - - - -
09/03:23am 11.9 SSE 14 24 1012.5 - 1.4 - - - - - - -
09/03:00am 11.7 S 23 33 1012.8 - 1.4 - - - - - - -
09/02:48am 12.1 SSE 14 28 1012.6 - 1.4 - - - - - - -
09/02:30am 11.8 SSE 13 21 1012.3 - 1.4 - - - - - - -
09/02:00am 10.9 S 16 27 1012.6 - 1.4 - - - - - - -
09/01:47am 12.0 S 15 29 1012.0 - 1.4 - - - - - - -
09/01:30am 11.8 S 14 23 1012.3 - 1.4 - - - - - - -
09/01:00am 12.2 SSE 14 26 1012.0 - 1.4 - - - - - - -
09/12:30am 11.8 S 16 27 1012.0 - 1.4 - - - - - - -
09/12:00am 12.1 S 16 27 1011.7 - 1.2 - - - - - - -
 
Date/Time
EDT
Temp
°C
Wind Pressure Rain since
9am
mm
Weather Cloud Vis
km
Sea
Height
m
Swell
Dir  Spd
kts
Gust
kts
hPa Trend Height
m
Period
s
Dir
08/11:30pm 11.8 S 16 27 1011.2 - 1.2 - - - - - - -
08/11:19pm 12.6 SSE 14 29 1011.3 - 1.2 - - - - - - -
08/11:00pm 12.7 ESE 12 23 1011.0 - 1.2 - - - - - - -
08/10:30pm 12.5 S 16 29 1010.4 - 1.2 - - - - - - -
08/10:24pm 12.7 SSE 15 25 1010.1 - 1.2 - - - - - - -
08/10:00pm 12.6 E 14 24 1009.3 - 1.2 - - - - - - -
08/09:42pm 12.5 NE 12 25 1008.7 - 1.2 - - - - - - -
08/09:30pm 12.2 NNE 12 23 1009.0 - 1.2 - - - - - - -
08/09:00pm 12.6 NE 14 24 1008.2 - 1.2 - - - - - - -
08/08:30pm 13.1 NE 13 20 1007.3 - 1.2 - - - - - - -
08/08:00pm 13.3 NNW 14 23 1006.8 - 1.2 - - - - - - -
08/07:30pm 13.4 NNE 14 23 1006.2 - 1.2 - - - - - - -
08/07:16pm 13.3 NNW 15 29 1005.9 - 1.2 - - - - - - -
08/07:00pm 13.2 N 13 22 1005.5 - 1.2 - - - - - - -
08/06:30pm 13.0 NW 17 28 1004.7 - 1.2 - - - - - - -
08/06:18pm 12.9 NNW 15 26 1004.4 - 1.2 - - - - - - -
08/06:00pm 12.7 N 16 27 1003.9 - 1.2 Recent precip. - - - - - -
08/05:30pm 12.8 NNW 16 29 1003.1 - 0.8 - - - - - - -
08/05:00pm 12.7 WNW 18 30 1002.5 - 0.6 - - - - - - -
08/04:40pm 12.6 NW 17 27 1002.1 - 0.4 - - - - - - -
08/04:30pm 13.2 NW 18 30 1001.8 - 0.4 - - - - - - -
08/04:07pm 13.8 WNW 19 33 1000.9 - 0.4 - - - - - - -
08/04:00pm 13.9 WNW 20 31 1001.0 - 0.4 - - - - - - -
08/03:58pm 13.8 WNW 21 32 1001.1 - 0.4 - - - - - - -
08/03:56pm 14.0 WNW 21 34 1000.9 - 0.4 - - - - - - -
08/03:30pm 13.9 W 28 39 1000.7 - 0.4 - - - - - - -
08/03:09pm 13.7 W 29 39 1000.7 - 0.4 - - - - - - -
08/03:00pm 13.1 W 31 39 1000.6 - 0.4 Recent precip. - - - - - -
08/02:30pm 14.2 W 27 43 999.9 - 0.4 - - - - - - -
08/02:00pm 14.2 W 22 35 999.3 - 0.2 - - - - - - -
08/01:34pm 15.6 W 27 45 998.9 - 0.0 - - - - - - -
08/01:33pm 15.6 W 28 45 998.9 - 0.0 - - - - - - -
08/01:30pm 15.6 W 31 45 998.7 - 0.0 - - - - - - -
08/01:00pm 15.8 W 32 44 998.5 - 0.0 - - - - - - -
08/12:30pm 15.1 W 29 45 998.2 - 0.0 - - - - - - -
08/12:00pm 15.7 W 31 42 997.9 - 0.0 - - - - - - -
08/11:30am 15.6 WNW 29 39 997.6 - 0.0 - - - - - - -
08/11:00am 15.5 WNW 31 42 997.1 - 0.0 - - - - - - -
08/10:30am 15.7 WNW 29 39 996.9 - 0.0 - - - - - - -
08/10:00am 15.8 WNW 33 43 996.2 - 0.0 - - - - - - -
08/09:30am 15.1 WNW 33 47 995.9 - 0.0 - - - - - - -
08/09:02am 14.3 WNW 29 39 995.8 - 0.0 - - - - - - -
08/09:00am 14.5 WNW 29 37 995.9 - 5.4 - - - - - - -
08/08:30am 15.1 WNW 30 41 995.6 - 5.4 - - - - - - -
08/08:00am 14.4 WNW 28 39 995.5 - 5.4 - - - - - - -
08/07:30am 14.2 WNW 30 46 995.2 - 5.4 - - - - - - -
08/07:00am 14.0 WNW 30 41 994.4 - 5.4 - - - - - - -
08/06:30am 14.6 WNW 28 38 993.8 - 5.4 - - - - - - -
08/06:00am 14.8 WNW 28 39 993.3 - 5.2 Recent precip. - - - - - -

Other Formats:

Comma delimited format used in spreadsheet applications
http://www.bom.gov.au/fwo/IDV60701/IDV60701.94826.axf

JavaScript Object Notation format (JSON) in row-major order
http://www.bom.gov.au/fwo/IDV60701/IDV60701.94826.json